sensor_id;sensor_type;location;lat;lon;timestamp;temperature;humidity
62904;DHT22;49000;50.698;13.322;2022-11-20T00:01:11;-7.60;99.90
62904;DHT22;49000;50.698;13.322;2022-11-20T00:03:37;-7.60;99.90
62904;DHT22;49000;50.698;13.322;2022-11-20T00:06:05;-7.70;99.90
62904;DHT22;49000;50.698;13.322;2022-11-20T00:08:30;-7.70;99.90
62904;DHT22;49000;50.698;13.322;2022-11-20T00:10:56;-7.70;99.90
62904;DHT22;49000;50.698;13.322;2022-11-20T00:13:22;-7.70;99.90
62904;DHT22;49000;50.698;13.322;2022-11-20T00:15:47;-7.80;99.90
62904;DHT22;49000;50.698;13.322;2022-11-20T00:18:13;-7.70;99.90
62904;DHT22;49000;50.698;13.322;2022-11-20T00:20:38;-8.10;99.90
62904;DHT22;49000;50.698;13.322;2022-11-20T00:23:04;-7.50;99.90
62904;DHT22;49000;50.698;13.322;2022-11-20T00:25:31;-7.60;99.90
62904;DHT22;49000;50.698;13.322;2022-11-20T00:27:56;-7.60;99.90
62904;DHT22;49000;50.698;13.322;2022-11-20T00:30:22;-8.30;99.90
62904;DHT22;49000;50.698;13.322;2022-11-20T00:32:47;-7.70;99.90
62904;DHT22;49000;50.698;13.322;2022-11-20T00:35:13;-7.90;99.90
62904;DHT22;49000;50.698;13.322;2022-11-20T00:37:38;-7.90;99.90
62904;DHT22;49000;50.698;13.322;2022-11-20T00:40:04;-7.70;99.90
62904;DHT22;49000;50.698;13.322;2022-11-20T00:42:30;-7.90;99.90
62904;DHT22;49000;50.698;13.322;2022-11-20T00:44:57;-7.70;99.90
62904;DHT22;49000;50.698;13.322;2022-11-20T00:47:23;-7.70;99.90
62904;DHT22;49000;50.698;13.322;2022-11-20T00:49:48;-8.30;99.90
62904;DHT22;49000;50.698;13.322;2022-11-20T00:52:14;-7.70;99.90
62904;DHT22;49000;50.698;13.322;2022-11-20T00:54:39;-7.90;99.90
62904;DHT22;49000;50.698;13.322;2022-11-20T00:57:05;-8.40;99.90
62904;DHT22;49000;50.698;13.322;2022-11-20T00:59:30;-7.80;99.90
62904;DHT22;49000;50.698;13.322;2022-11-20T01:01:56;-7.80;99.90
62904;DHT22;49000;50.698;13.322;2022-11-20T01:04:21;-8.40;99.90
62904;DHT22;49000;50.698;13.322;2022-11-20T01:06:47;-8.00;99.90
62904;DHT22;49000;50.698;13.322;2022-11-20T01:09:14;-8.00;99.90
62904;DHT22;49000;50.698;13.322;2022-11-20T01:11:42;-7.90;99.90
62904;DHT22;49000;50.698;13.322;2022-11-20T01:14:11;-7.90;99.90
62904;DHT22;49000;50.698;13.322;2022-11-20T01:16:42;-7.90;99.90
62904;DHT22;49000;50.698;13.322;2022-11-20T01:19:11;-8.30;99.90
62904;DHT22;49000;50.698;13.322;2022-11-20T01:21:40;-8.10;99.90
62904;DHT22;49000;50.698;13.322;2022-11-20T01:24:07;-8.70;99.90
62904;DHT22;49000;50.698;13.322;2022-11-20T01:26:35;-8.00;99.90
62904;DHT22;49000;50.698;13.322;2022-11-20T01:29:01;-8.50;99.90
62904;DHT22;49000;50.698;13.322;2022-11-20T01:31:30;-8.00;99.90
62904;DHT22;49000;50.698;13.322;2022-11-20T01:33:57;-8.40;99.90
62904;DHT22;49000;50.698;13.322;2022-11-20T01:36:25;-8.00;99.90
62904;DHT22;49000;50.698;13.322;2022-11-20T01:38:52;-8.10;99.90
62904;DHT22;49000;50.698;13.322;2022-11-20T01:41:19;-8.00;99.90
62904;DHT22;49000;50.698;13.322;2022-11-20T01:44:04;-7.90;99.90
62904;DHT22;49000;50.698;13.322;2022-11-20T01:46:31;-7.80;99.90
62904;DHT22;49000;50.698;13.322;2022-11-20T01:49:20;-8.10;99.90
62904;DHT22;49000;50.698;13.322;2022-11-20T01:52:02;-8.00;99.90
62904;DHT22;49000;50.698;13.322;2022-11-20T01:54:40;-7.90;99.90
62904;DHT22;49000;50.698;13.322;2022-11-20T01:57:10;-7.80;99.90
62904;DHT22;49000;50.698;13.322;2022-11-20T01:59:41;-8.10;99.90
62904;DHT22;49000;50.698;13.322;2022-11-20T02:02:08;-8.30;99.90
62904;DHT22;49000;50.698;13.322;2022-11-20T02:04:34;-7.70;99.90
62904;DHT22;49000;50.698;13.322;2022-11-20T02:07:01;-7.90;99.90
62904;DHT22;49000;50.698;13.322;2022-11-20T02:09:28;-7.80;99.90
62904;DHT22;49000;50.698;13.322;2022-11-20T02:11:54;-7.90;99.90
62904;DHT22;49000;50.698;13.322;2022-11-20T02:14:21;-7.90;99.90
62904;DHT22;49000;50.698;13.322;2022-11-20T02:16:49;-7.80;99.90
62904;DHT22;49000;50.698;13.322;2022-11-20T02:19:35;-8.10;99.90
62904;DHT22;49000;50.698;13.322;2022-11-20T02:22:02;-7.80;99.90
62904;DHT22;49000;50.698;13.322;2022-11-20T02:24:29;-7.80;99.90
62904;DHT22;49000;50.698;13.322;2022-11-20T02:27:04;-7.70;99.90
62904;DHT22;49000;50.698;13.322;2022-11-20T02:29:52;-7.80;99.90
62904;DHT22;49000;50.698;13.322;2022-11-20T02:32:27;-7.90;99.90
62904;DHT22;49000;50.698;13.322;2022-11-20T02:34:53;-7.90;99.90
62904;DHT22;49000;50.698;13.322;2022-11-20T02:37:19;-7.70;99.90
62904;DHT22;49000;50.698;13.322;2022-11-20T02:39:48;-8.20;99.90
62904;DHT22;49000;50.698;13.322;2022-11-20T02:42:14;-7.70;99.90
62904;DHT22;49000;50.698;13.322;2022-11-20T02:44:40;-7.80;99.90
62904;DHT22;49000;50.698;13.322;2022-11-20T02:47:06;-7.70;99.90
62904;DHT22;49000;50.698;13.322;2022-11-20T02:49:31;-7.80;99.90
62904;DHT22;49000;50.698;13.322;2022-11-20T02:51:57;-8.10;99.90
62904;DHT22;49000;50.698;13.322;2022-11-20T02:54:23;-7.90;99.90
62904;DHT22;49000;50.698;13.322;2022-11-20T02:56:49;-8.00;99.90
62904;DHT22;49000;50.698;13.322;2022-11-20T02:59:14;-8.10;99.90
62904;DHT22;49000;50.698;13.322;2022-11-20T03:01:40;-7.90;99.90
62904;DHT22;49000;50.698;13.322;2022-11-20T03:04:05;-7.90;99.90
62904;DHT22;49000;50.698;13.322;2022-11-20T03:06:31;-8.20;99.90
62904;DHT22;49000;50.698;13.322;2022-11-20T03:08:57;-8.00;99.90
62904;DHT22;49000;50.698;13.322;2022-11-20T03:11:23;-8.60;99.90
62904;DHT22;49000;50.698;13.322;2022-11-20T03:13:48;-8.20;99.90
62904;DHT22;49000;50.698;13.322;2022-11-20T03:16:17;-8.10;99.90
62904;DHT22;49000;50.698;13.322;2022-11-20T03:18:43;-8.00;99.90
62904;DHT22;49000;50.698;13.322;2022-11-20T03:21:10;-8.00;99.90
62904;DHT22;49000;50.698;13.322;2022-11-20T03:23:36;-7.90;99.90
62904;DHT22;49000;50.698;13.322;2022-11-20T03:26:12;-7.90;99.90
62904;DHT22;49000;50.698;13.322;2022-11-20T03:28:39;-7.90;99.90
62904;DHT22;49000;50.698;13.322;2022-11-20T03:31:07;-7.90;99.90
62904;DHT22;49000;50.698;13.322;2022-11-20T03:33:33;-7.90;99.90
62904;DHT22;49000;50.698;13.322;2022-11-20T03:36:06;-8.50;99.90
62904;DHT22;49000;50.698;13.322;2022-11-20T03:38:33;-8.00;99.90
62904;DHT22;49000;50.698;13.322;2022-11-20T03:41:03;-8.10;99.90
62904;DHT22;49000;50.698;13.322;2022-11-20T03:43:30;-8.10;99.90
62904;DHT22;49000;50.698;13.322;2022-11-20T03:45:56;-7.90;99.90
62904;DHT22;49000;50.698;13.322;2022-11-20T03:48:22;-8.40;99.90
62904;DHT22;49000;50.698;13.322;2022-11-20T03:50:47;-8.50;99.90
62904;DHT22;49000;50.698;13.322;2022-11-20T03:53:13;-8.10;99.90
62904;DHT22;49000;50.698;13.322;2022-11-20T03:55:39;-8.00;99.90
62904;DHT22;49000;50.698;13.322;2022-11-20T03:58:04;-8.00;99.90
62904;DHT22;49000;50.698;13.322;2022-11-20T04:00:30;-8.10;99.90
62904;DHT22;49000;50.698;13.322;2022-11-20T04:02:59;-8.10;99.90
62904;DHT22;49000;50.698;13.322;2022-11-20T04:05:25;-8.10;99.90
62904;DHT22;49000;50.698;13.322;2022-11-20T04:07:51;-8.20;99.90
62904;DHT22;49000;50.698;13.322;2022-11-20T04:10:16;-8.10;99.90
62904;DHT22;49000;50.698;13.322;2022-11-20T04:12:42;-8.00;99.90
62904;DHT22;49000;50.698;13.322;2022-11-20T04:15:08;-8.10;99.90
62904;DHT22;49000;50.698;13.322;2022-11-20T04:17:34;-7.80;99.90
62904;DHT22;49000;50.698;13.322;2022-11-20T04:19:59;-8.00;99.90
62904;DHT22;49000;50.698;13.322;2022-11-20T04:22:25;-7.80;99.90
62904;DHT22;49000;50.698;13.322;2022-11-20T04:24:50;-8.20;99.90
62904;DHT22;49000;50.698;13.322;2022-11-20T04:27:16;-8.50;99.90
62904;DHT22;49000;50.698;13.322;2022-11-20T04:29:41;-8.10;99.90
62904;DHT22;49000;50.698;13.322;2022-11-20T04:32:07;-8.60;99.90
62904;DHT22;49000;50.698;13.322;2022-11-20T04:34:32;-8.20;99.90
62904;DHT22;49000;50.698;13.322;2022-11-20T04:36:58;-8.20;99.90
62904;DHT22;49000;50.698;13.322;2022-11-20T04:39:23;-8.60;99.90
62904;DHT22;49000;50.698;13.322;2022-11-20T04:41:49;-7.90;99.90
62904;DHT22;49000;50.698;13.322;2022-11-20T04:44:34;-8.60;99.90
62904;DHT22;49000;50.698;13.322;2022-11-20T04:47:00;-7.90;99.90
62904;DHT22;49000;50.698;13.322;2022-11-20T04:49:25;-8.10;99.90
62904;DHT22;49000;50.698;13.322;2022-11-20T04:51:53;-7.90;99.90
62904;DHT22;49000;50.698;13.322;2022-11-20T04:54:19;-8.20;99.90
62904;DHT22;49000;50.698;13.322;2022-11-20T04:56:47;-7.90;99.90
62904;DHT22;49000;50.698;13.322;2022-11-20T04:59:13;-8.10;99.90
62904;DHT22;49000;50.698;13.322;2022-11-20T05:01:38;-8.00;99.90
62904;DHT22;49000;50.698;13.322;2022-11-20T05:04:04;-8.20;99.90
62904;DHT22;49000;50.698;13.322;2022-11-20T05:06:29;-8.00;99.90
62904;DHT22;49000;50.698;13.322;2022-11-20T05:08:55;-8.10;99.90
62904;DHT22;49000;50.698;13.322;2022-11-20T05:11:21;-8.10;99.90
62904;DHT22;49000;50.698;13.322;2022-11-20T05:13:47;-8.00;99.90
62904;DHT22;49000;50.698;13.322;2022-11-20T05:16:15;-8.20;99.90
62904;DHT22;49000;50.698;13.322;2022-11-20T05:18:42;-8.30;99.90
62904;DHT22;49000;50.698;13.322;2022-11-20T05:21:09;-8.20;99.90
62904;DHT22;49000;50.698;13.322;2022-11-20T05:23:35;-8.00;99.90
62904;DHT22;49000;50.698;13.322;2022-11-20T05:26:01;-8.00;99.90
62904;DHT22;49000;50.698;13.322;2022-11-20T05:28:28;-8.20;99.90
62904;DHT22;49000;50.698;13.322;2022-11-20T05:30:54;-8.30;99.90
62904;DHT22;49000;50.698;13.322;2022-11-20T05:33:20;-8.40;99.90
62904;DHT22;49000;50.698;13.322;2022-11-20T05:35:45;-8.40;99.90
62904;DHT22;49000;50.698;13.322;2022-11-20T05:38:11;-8.80;99.90
62904;DHT22;49000;50.698;13.322;2022-11-20T05:40:36;-8.20;99.90
62904;DHT22;49000;50.698;13.322;2022-11-20T05:43:02;-8.30;99.90
62904;DHT22;49000;50.698;13.322;2022-11-20T05:45:28;-8.30;99.90
62904;DHT22;49000;50.698;13.322;2022-11-20T05:47:53;-8.30;99.90
62904;DHT22;49000;50.698;13.322;2022-11-20T05:50:19;-8.30;99.90
62904;DHT22;49000;50.698;13.322;2022-11-20T05:52:44;-8.10;99.90
62904;DHT22;49000;50.698;13.322;2022-11-20T05:55:10;-8.30;99.90
62904;DHT22;49000;50.698;13.322;2022-11-20T05:57:36;-8.20;99.90
62904;DHT22;49000;50.698;13.322;2022-11-20T06:00:02;-8.40;99.90
62904;DHT22;49000;50.698;13.322;2022-11-20T06:02:28;-8.40;99.90
62904;DHT22;49000;50.698;13.322;2022-11-20T06:04:54;-8.30;99.90
62904;DHT22;49000;50.698;13.322;2022-11-20T06:07:19;-8.50;99.90
62904;DHT22;49000;50.698;13.322;2022-11-20T06:09:45;-8.50;99.90
62904;DHT22;49000;50.698;13.322;2022-11-20T06:12:10;-8.30;99.90
62904;DHT22;49000;50.698;13.322;2022-11-20T06:14:36;-8.20;99.90
62904;DHT22;49000;50.698;13.322;2022-11-20T06:17:01;-8.80;99.90
62904;DHT22;49000;50.698;13.322;2022-11-20T06:19:27;-8.50;99.90
62904;DHT22;49000;50.698;13.322;2022-11-20T06:21:52;-8.30;99.90
62904;DHT22;49000;50.698;13.322;2022-11-20T06:24:18;-8.60;99.90
62904;DHT22;49000;50.698;13.322;2022-11-20T06:26:44;-8.30;99.90
62904;DHT22;49000;50.698;13.322;2022-11-20T06:29:10;-8.90;99.90
62904;DHT22;49000;50.698;13.322;2022-11-20T06:31:35;-8.40;99.90
62904;DHT22;49000;50.698;13.322;2022-11-20T06:34:03;-8.30;99.90
62904;DHT22;49000;50.698;13.322;2022-11-20T06:36:29;-8.90;99.90
62904;DHT22;49000;50.698;13.322;2022-11-20T06:38:55;-8.40;99.90
62904;DHT22;49000;50.698;13.322;2022-11-20T06:41:21;-8.30;99.90
62904;DHT22;49000;50.698;13.322;2022-11-20T06:43:47;-8.40;99.90
62904;DHT22;49000;50.698;13.322;2022-11-20T06:46:14;-8.30;99.90
62904;DHT22;49000;50.698;13.322;2022-11-20T06:48:42;-8.30;99.90
62904;DHT22;49000;50.698;13.322;2022-11-20T06:51:09;-8.30;99.90
62904;DHT22;49000;50.698;13.322;2022-11-20T06:53:34;-8.30;99.90
62904;DHT22;49000;50.698;13.322;2022-11-20T06:56:00;-8.10;99.90
62904;DHT22;49000;50.698;13.322;2022-11-20T06:58:27;-8.20;99.90
62904;DHT22;49000;50.698;13.322;2022-11-20T07:00:53;-8.30;99.90
62904;DHT22;49000;50.698;13.322;2022-11-20T07:03:19;-8.10;99.90
62904;DHT22;49000;50.698;13.322;2022-11-20T07:05:45;-8.10;99.90
62904;DHT22;49000;50.698;13.322;2022-11-20T07:08:11;-8.00;99.90
62904;DHT22;49000;50.698;13.322;2022-11-20T07:10:37;-8.20;99.90
62904;DHT22;49000;50.698;13.322;2022-11-20T07:13:02;-8.30;99.90
62904;DHT22;49000;50.698;13.322;2022-11-20T07:15:28;-8.20;99.90
62904;DHT22;49000;50.698;13.322;2022-11-20T07:17:54;-8.00;99.90
62904;DHT22;49000;50.698;13.322;2022-11-20T07:20:19;-8.80;99.90
62904;DHT22;49000;50.698;13.322;2022-11-20T07:22:45;-8.70;99.90
62904;DHT22;49000;50.698;13.322;2022-11-20T07:25:10;-8.00;99.90
62904;DHT22;49000;50.698;13.322;2022-11-20T07:27:36;-8.50;99.90
62904;DHT22;49000;50.698;13.322;2022-11-20T07:30:03;-7.90;99.90
62904;DHT22;49000;50.698;13.322;2022-11-20T07:32:29;-7.80;99.90
62904;DHT22;49000;50.698;13.322;2022-11-20T07:34:54;-8.00;99.90
62904;DHT22;49000;50.698;13.322;2022-11-20T07:37:20;-8.10;99.90
62904;DHT22;49000;50.698;13.322;2022-11-20T07:39:46;-7.90;99.90
62904;DHT22;49000;50.698;13.322;2022-11-20T07:42:11;-7.70;99.90
62904;DHT22;49000;50.698;13.322;2022-11-20T07:44:37;-7.80;99.90
62904;DHT22;49000;50.698;13.322;2022-11-20T07:47:03;-8.40;99.90
62904;DHT22;49000;50.698;13.322;2022-11-20T07:49:29;-7.80;99.90
62904;DHT22;49000;50.698;13.322;2022-11-20T07:51:54;-7.80;99.90
62904;DHT22;49000;50.698;13.322;2022-11-20T07:54:20;-7.60;99.90
62904;DHT22;49000;50.698;13.322;2022-11-20T07:56:47;-7.70;99.90
62904;DHT22;49000;50.698;13.322;2022-11-20T07:59:12;-7.70;99.90
62904;DHT22;49000;50.698;13.322;2022-11-20T08:01:39;-7.50;99.90
62904;DHT22;49000;50.698;13.322;2022-11-20T08:04:05;-7.50;99.90
62904;DHT22;49000;50.698;13.322;2022-11-20T08:06:30;-7.50;99.90
62904;DHT22;49000;50.698;13.322;2022-11-20T08:08:56;-7.50;99.90
62904;DHT22;49000;50.698;13.322;2022-11-20T08:11:22;-7.30;99.90
62904;DHT22;49000;50.698;13.322;2022-11-20T08:14:06;-7.80;99.90
62904;DHT22;49000;50.698;13.322;2022-11-20T08:16:38;-7.30;99.90
62904;DHT22;49000;50.698;13.322;2022-11-20T08:19:03;-7.50;99.90
62904;DHT22;49000;50.698;13.322;2022-11-20T08:21:30;-7.20;99.90
62904;DHT22;49000;50.698;13.322;2022-11-20T08:23:57;-7.20;99.90
62904;DHT22;49000;50.698;13.322;2022-11-20T08:26:23;-7.20;99.90
62904;DHT22;49000;50.698;13.322;2022-11-20T08:28:48;-7.70;99.90
62904;DHT22;49000;50.698;13.322;2022-11-20T08:31:14;-7.00;99.90
62904;DHT22;49000;50.698;13.322;2022-11-20T08:33:39;-7.10;99.90
62904;DHT22;49000;50.698;13.322;2022-11-20T08:36:05;-7.10;99.90
62904;DHT22;49000;50.698;13.322;2022-11-20T08:38:32;-7.20;99.90
62904;DHT22;49000;50.698;13.322;2022-11-20T08:40:59;-7.00;99.90
62904;DHT22;49000;50.698;13.322;2022-11-20T08:43:44;-6.80;99.90
62904;DHT22;49000;50.698;13.322;2022-11-20T08:46:10;-6.80;99.90
62904;DHT22;49000;50.698;13.322;2022-11-20T08:48:36;-7.40;99.90
62904;DHT22;49000;50.698;13.322;2022-11-20T08:51:01;-6.70;99.90
62904;DHT22;49000;50.698;13.322;2022-11-20T08:53:27;-6.30;99.90
62904;DHT22;49000;50.698;13.322;2022-11-20T08:55:53;-6.00;99.90
62904;DHT22;49000;50.698;13.322;2022-11-20T08:58:18;-6.10;99.90
62904;DHT22;49000;50.698;13.322;2022-11-20T09:00:44;-5.70;99.90
62904;DHT22;49000;50.698;13.322;2022-11-20T09:03:09;-5.60;99.90
62904;DHT22;49000;50.698;13.322;2022-11-20T09:05:35;-5.30;99.90
62904;DHT22;49000;50.698;13.322;2022-11-20T09:08:01;-4.80;99.90
62904;DHT22;49000;50.698;13.322;2022-11-20T09:10:27;-4.70;99.90
62904;DHT22;49000;50.698;13.322;2022-11-20T09:12:53;-4.50;99.90
62904;DHT22;49000;50.698;13.322;2022-11-20T09:15:20;-4.20;99.90
62904;DHT22;49000;50.698;13.322;2022-11-20T09:17:56;-4.00;99.90
62904;DHT22;49000;50.698;13.322;2022-11-20T09:20:23;-4.00;99.90
62904;DHT22;49000;50.698;13.322;2022-11-20T09:22:49;-3.50;99.90
62904;DHT22;49000;50.698;13.322;2022-11-20T09:25:15;-3.50;99.90
62904;DHT22;49000;50.698;13.322;2022-11-20T09:27:40;-3.30;99.90
62904;DHT22;49000;50.698;13.322;2022-11-20T09:30:12;-3.20;99.90
62904;DHT22;49000;50.698;13.322;2022-11-20T09:32:38;-3.00;99.90
62904;DHT22;49000;50.698;13.322;2022-11-20T09:35:04;-3.00;99.90
62904;DHT22;49000;50.698;13.322;2022-11-20T09:37:30;-2.60;99.90
62904;DHT22;49000;50.698;13.322;2022-11-20T09:39:55;-2.50;99.90
62904;DHT22;49000;50.698;13.322;2022-11-20T09:47:54;-2.30;99.90
62904;DHT22;49000;50.698;13.322;2022-11-20T09:50:45;-1.90;99.90
62904;DHT22;49000;50.698;13.322;2022-11-20T09:53:35;-2.30;99.90
62904;DHT22;49000;50.698;13.322;2022-11-20T09:56:04;-2.00;99.90
62904;DHT22;49000;50.698;13.322;2022-11-20T09:58:40;-1.70;99.90
62904;DHT22;49000;50.698;13.322;2022-11-20T10:01:23;-1.40;99.90
62904;DHT22;49000;50.698;13.322;2022-11-20T10:04:19;-1.30;99.90
62904;DHT22;49000;50.698;13.322;2022-11-20T10:09:32;-1.30;99.90
62904;DHT22;49000;50.698;13.322;2022-11-20T10:20:20;-0.80;99.90
62904;DHT22;49000;50.698;13.322;2022-11-20T10:23:08;-0.80;99.90
62904;DHT22;49000;50.698;13.322;2022-11-20T10:30:38;-0.60;99.90
62904;DHT22;49000;50.698;13.322;2022-11-20T10:33:17;-1.00;99.90
62904;DHT22;49000;50.698;13.322;2022-11-20T10:35:50;-0.70;99.90
62904;DHT22;49000;50.698;13.322;2022-11-20T10:38:39;-0.50;99.90
62904;DHT22;49000;50.698;13.322;2022-11-20T10:41:06;-0.60;99.90
62904;DHT22;49000;50.698;13.322;2022-11-20T10:44:05;-0.50;99.90
62904;DHT22;49000;50.698;13.322;2022-11-20T10:47:00;-0.70;99.90
62904;DHT22;49000;50.698;13.322;2022-11-20T10:49:25;-0.70;99.90
62904;DHT22;49000;50.698;13.322;2022-11-20T10:52:17;-0.50;99.90
62904;DHT22;49000;50.698;13.322;2022-11-20T10:54:53;-0.60;99.90
62904;DHT22;49000;50.698;13.322;2022-11-20T11:00:11;-0.40;99.90
62904;DHT22;49000;50.698;13.322;2022-11-20T11:02:47;-0.40;99.90
62904;DHT22;49000;50.698;13.322;2022-11-20T11:07:48;-0.50;99.90
62904;DHT22;49000;50.698;13.322;2022-11-20T11:10:29;-0.40;99.90
62904;DHT22;49000;50.698;13.322;2022-11-20T11:12:58;-0.30;99.90
62904;DHT22;49000;50.698;13.322;2022-11-20T11:15:38;-0.10;99.90
62904;DHT22;49000;50.698;13.322;2022-11-20T11:18:04;0.20;99.90
62904;DHT22;49000;50.698;13.322;2022-11-20T11:20:30;0.00;99.90
62904;DHT22;49000;50.698;13.322;2022-11-20T11:22:58;0.30;99.90
62904;DHT22;49000;50.698;13.322;2022-11-20T11:27:54;0.30;99.90
62904;DHT22;49000;50.698;13.322;2022-11-20T11:30:22;0.50;99.90
62904;DHT22;49000;50.698;13.322;2022-11-20T11:32:48;0.60;99.90
62904;DHT22;49000;50.698;13.322;2022-11-20T11:35:23;0.60;99.90
62904;DHT22;49000;50.698;13.322;2022-11-20T11:37:50;0.60;99.90
62904;DHT22;49000;50.698;13.322;2022-11-20T11:40:18;0.50;99.90
62904;DHT22;49000;50.698;13.322;2022-11-20T11:42:52;0.50;99.90
62904;DHT22;49000;50.698;13.322;2022-11-20T11:45:19;0.50;99.90
62904;DHT22;49000;50.698;13.322;2022-11-20T11:47:48;0.70;99.90
62904;DHT22;49000;50.698;13.322;2022-11-20T11:50:27;0.00;99.90
62904;DHT22;49000;50.698;13.322;2022-11-20T11:53:08;0.30;99.90
62904;DHT22;49000;50.698;13.322;2022-11-20T11:58:34;0.30;99.90
62904;DHT22;49000;50.698;13.322;2022-11-20T12:06:36;0.30;99.90
62904;DHT22;49000;50.698;13.322;2022-11-20T12:09:08;0.10;99.90
62904;DHT22;49000;50.698;13.322;2022-11-20T12:11:38;0.30;99.90
62904;DHT22;49000;50.698;13.322;2022-11-20T12:14:21;0.20;99.90
62904;DHT22;49000;50.698;13.322;2022-11-20T12:16:51;0.10;99.90
62904;DHT22;49000;50.698;13.322;2022-11-20T12:19:18;-0.10;99.90
62904;DHT22;49000;50.698;13.322;2022-11-20T12:22:01;0.40;99.90
62904;DHT22;49000;50.698;13.322;2022-11-20T12:27:37;0.30;99.90
62904;DHT22;49000;50.698;13.322;2022-11-20T12:30:10;0.20;99.90
62904;DHT22;49000;50.698;13.322;2022-11-20T13:04:37;-0.30;99.90
62904;DHT22;49000;50.698;13.322;2022-11-20T13:07:12;0.10;99.90
62904;DHT22;49000;50.698;13.322;2022-11-20T13:09:45;0.00;99.90
62904;DHT22;49000;50.698;13.322;2022-11-20T13:12:20;0.10;99.90
62904;DHT22;49000;50.698;13.322;2022-11-20T13:15:13;0.20;99.90
62904;DHT22;49000;50.698;13.322;2022-11-20T13:17:54;0.30;99.90
62904;DHT22;49000;50.698;13.322;2022-11-20T13:20:20;0.10;99.90
62904;DHT22;49000;50.698;13.322;2022-11-20T13:22:53;0.00;99.90
62904;DHT22;49000;50.698;13.322;2022-11-20T13:25:39;0.30;99.90
62904;DHT22;49000;50.698;13.322;2022-11-20T13:30:47;0.20;99.90
62904;DHT22;49000;50.698;13.322;2022-11-20T13:33:29;0.20;99.90
62904;DHT22;49000;50.698;13.322;2022-11-20T13:38:23;0.30;99.90
62904;DHT22;49000;50.698;13.322;2022-11-20T13:41:01;0.30;99.90
62904;DHT22;49000;50.698;13.322;2022-11-20T13:43:49;0.30;99.90
62904;DHT22;49000;50.698;13.322;2022-11-20T13:46:15;0.20;99.90
62904;DHT22;49000;50.698;13.322;2022-11-20T13:48:43;0.40;99.90
62904;DHT22;49000;50.698;13.322;2022-11-20T13:51:40;0.40;99.90
62904;DHT22;49000;50.698;13.322;2022-11-20T13:59:57;0.40;99.90
62904;DHT22;49000;50.698;13.322;2022-11-20T14:02:26;0.30;99.90
62904;DHT22;49000;50.698;13.322;2022-11-20T14:04:54;0.60;99.90
62904;DHT22;49000;50.698;13.322;2022-11-20T14:07:25;0.40;99.90
62904;DHT22;49000;50.698;13.322;2022-11-20T14:09:55;0.60;99.90
62904;DHT22;49000;50.698;13.322;2022-11-20T14:12:26;0.60;99.90
62904;DHT22;49000;50.698;13.322;2022-11-20T14:14:53;0.40;99.90
62904;DHT22;49000;50.698;13.322;2022-11-20T14:19:55;0.10;99.90
62904;DHT22;49000;50.698;13.322;2022-11-20T14:22:25;0.40;99.90
62904;DHT22;49000;50.698;13.322;2022-11-20T14:25:06;-0.20;99.90
62904;DHT22;49000;50.698;13.322;2022-11-20T14:27:39;0.50;99.90
62904;DHT22;49000;50.698;13.322;2022-11-20T14:30:16;-0.30;99.90
62904;DHT22;49000;50.698;13.322;2022-11-20T14:32:43;0.20;99.90
62904;DHT22;49000;50.698;13.322;2022-11-20T14:35:35;0.30;99.90
62904;DHT22;49000;50.698;13.322;2022-11-20T14:38:00;0.30;99.90
62904;DHT22;49000;50.698;13.322;2022-11-20T14:40:35;0.30;99.90
62904;DHT22;49000;50.698;13.322;2022-11-20T14:43:02;0.40;99.90
62904;DHT22;49000;50.698;13.322;2022-11-20T14:45:40;0.10;99.90
62904;DHT22;49000;50.698;13.322;2022-11-20T14:48:08;-0.20;99.90
62904;DHT22;49000;50.698;13.322;2022-11-20T14:50:35;0.20;99.90
62904;DHT22;49000;50.698;13.322;2022-11-20T14:53:01;0.20;99.90
62904;DHT22;49000;50.698;13.322;2022-11-20T14:55:36;-0.20;99.90
62904;DHT22;49000;50.698;13.322;2022-11-20T14:58:20;-0.10;99.90
62904;DHT22;49000;50.698;13.322;2022-11-20T15:00:55;0.00;99.90
62904;DHT22;49000;50.698;13.322;2022-11-20T15:03:21;0.00;99.90
62904;DHT22;49000;50.698;13.322;2022-11-20T15:05:48;0.10;99.90
62904;DHT22;49000;50.698;13.322;2022-11-20T15:08:14;-0.10;99.90
62904;DHT22;49000;50.698;13.322;2022-11-20T15:10:48;-0.20;99.90
62904;DHT22;49000;50.698;13.322;2022-11-20T15:15:56;-0.30;99.90
62904;DHT22;49000;50.698;13.322;2022-11-20T15:18:27;-0.10;99.90
62904;DHT22;49000;50.698;13.322;2022-11-20T15:20:55;-0.10;99.90
62904;DHT22;49000;50.698;13.322;2022-11-20T15:23:22;-0.20;99.90
62904;DHT22;49000;50.698;13.322;2022-11-20T15:25:48;0.10;99.90
62904;DHT22;49000;50.698;13.322;2022-11-20T15:30:53;0.00;99.90
62904;DHT22;49000;50.698;13.322;2022-11-20T15:33:21;-0.10;99.90
62904;DHT22;49000;50.698;13.322;2022-11-20T15:35:46;-0.30;99.90
62904;DHT22;49000;50.698;13.322;2022-11-20T15:38:12;0.10;99.90
62904;DHT22;49000;50.698;13.322;2022-11-20T15:40:37;-0.10;99.90
62904;DHT22;49000;50.698;13.322;2022-11-20T15:43:03;-0.10;99.90
62904;DHT22;49000;50.698;13.322;2022-11-20T15:45:41;-0.50;99.90
62904;DHT22;49000;50.698;13.322;2022-11-20T15:48:16;-0.10;99.90
62904;DHT22;49000;50.698;13.322;2022-11-20T15:53:40;-0.10;99.90
62904;DHT22;49000;50.698;13.322;2022-11-20T15:56:07;-0.20;99.90
62904;DHT22;49000;50.698;13.322;2022-11-20T15:58:34;-0.10;99.90
62904;DHT22;49000;50.698;13.322;2022-11-20T16:00:59;-0.40;99.90
62904;DHT22;49000;50.698;13.322;2022-11-20T16:03:25;-0.40;99.90
62904;DHT22;49000;50.698;13.322;2022-11-20T16:05:51;-0.50;99.90
62904;DHT22;49000;50.698;13.322;2022-11-20T16:08:16;-0.20;99.90
62904;DHT22;49000;50.698;13.322;2022-11-20T16:10:42;-0.30;99.90
62904;DHT22;49000;50.698;13.322;2022-11-20T16:13:16;-0.40;99.90
62904;DHT22;49000;50.698;13.322;2022-11-20T16:16:10;-0.50;99.90
62904;DHT22;49000;50.698;13.322;2022-11-20T16:18:36;-0.60;99.90
62904;DHT22;49000;50.698;13.322;2022-11-20T16:21:02;-0.90;99.90
62904;DHT22;49000;50.698;13.322;2022-11-20T16:23:28;-0.50;99.90
62904;DHT22;49000;50.698;13.322;2022-11-20T16:25:53;-0.40;99.90
62904;DHT22;49000;50.698;13.322;2022-11-20T16:28:19;-0.40;99.90
62904;DHT22;49000;50.698;13.322;2022-11-20T16:30:45;-1.10;99.90
62904;DHT22;49000;50.698;13.322;2022-11-20T16:33:13;-0.90;99.90
62904;DHT22;49000;50.698;13.322;2022-11-20T16:35:39;-0.80;99.90
62904;DHT22;49000;50.698;13.322;2022-11-20T16:38:05;-0.80;99.90
62904;DHT22;49000;50.698;13.322;2022-11-20T16:40:30;-0.70;99.90
62904;DHT22;49000;50.698;13.322;2022-11-20T16:42:56;-1.00;99.90
62904;DHT22;49000;50.698;13.322;2022-11-20T16:45:23;-0.80;99.90
62904;DHT22;49000;50.698;13.322;2022-11-20T16:47:48;-1.10;99.90
62904;DHT22;49000;50.698;13.322;2022-11-20T16:50:14;-1.10;99.90
62904;DHT22;49000;50.698;13.322;2022-11-20T16:52:40;-1.10;99.90
62904;DHT22;49000;50.698;13.322;2022-11-20T16:55:05;-1.10;99.90
62904;DHT22;49000;50.698;13.322;2022-11-20T16:57:31;-1.20;99.90
62904;DHT22;49000;50.698;13.322;2022-11-20T16:59:58;-1.40;99.90
62904;DHT22;49000;50.698;13.322;2022-11-20T17:02:24;-1.30;99.90